sensor_id;sensor_type;location;lat;lon;timestamp;P1;durP1;ratioP1;P2;durP2;ratioP2
33491;SDS011;20010;51.488;7.232;2022-11-23T00:02:07;4.63;;;4.13;;
33491;SDS011;20010;51.488;7.232;2022-11-23T00:04:34;4.88;;;4.30;;
33491;SDS011;20010;51.488;7.232;2022-11-23T00:07:01;5.22;;;4.38;;
33491;SDS011;20010;51.488;7.232;2022-11-23T00:09:27;5.45;;;4.60;;
33491;SDS011;20010;51.488;7.232;2022-11-23T00:11:55;10.77;;;4.78;;
33491;SDS011;20010;51.488;7.232;2022-11-23T00:14:21;6.70;;;4.60;;
33491;SDS011;20010;51.488;7.232;2022-11-23T00:16:48;4.90;;;4.50;;
33491;SDS011;20010;51.488;7.232;2022-11-23T00:19:15;4.75;;;4.20;;
33491;SDS011;20010;51.488;7.232;2022-11-23T00:21:41;6.70;;;5.22;;
33491;SDS011;20010;51.488;7.232;2022-11-23T00:24:10;6.50;;;5.20;;
33491;SDS011;20010;51.488;7.232;2022-11-23T00:26:38;4.60;;;3.90;;
33491;SDS011;20010;51.488;7.232;2022-11-23T00:29:04;4.75;;;4.20;;
33491;SDS011;20010;51.488;7.232;2022-11-23T00:31:31;6.65;;;4.40;;
33491;SDS011;20010;51.488;7.232;2022-11-23T00:33:58;6.43;;;4.57;;
33491;SDS011;20010;51.488;7.232;2022-11-23T00:36:25;6.25;;;4.80;;
33491;SDS011;20010;51.488;7.232;2022-11-23T00:38:53;5.18;;;4.70;;
33491;SDS011;20010;51.488;7.232;2022-11-23T00:41:21;6.82;;;5.00;;
33491;SDS011;20010;51.488;7.232;2022-11-23T00:43:50;5.10;;;4.60;;
33491;SDS011;20010;51.488;7.232;2022-11-23T00:46:24;8.00;;;4.68;;
33491;SDS011;20010;51.488;7.232;2022-11-23T00:48:53;4.90;;;4.60;;
33491;SDS011;20010;51.488;7.232;2022-11-23T00:51:22;5.70;;;4.70;;
33491;SDS011;20010;51.488;7.232;2022-11-23T00:53:51;5.47;;;4.60;;
33491;SDS011;20010;51.488;7.232;2022-11-23T00:56:18;6.15;;;5.15;;
33491;SDS011;20010;51.488;7.232;2022-11-23T00:58:49;5.22;;;4.65;;
33491;SDS011;20010;51.488;7.232;2022-11-23T01:03:45;7.07;;;5.20;;
33491;SDS011;20010;51.488;7.232;2022-11-23T01:06:15;4.90;;;4.40;;
33491;SDS011;20010;51.488;7.232;2022-11-23T01:08:51;7.43;;;4.63;;
33491;SDS011;20010;51.488;7.232;2022-11-23T01:11:20;6.05;;;5.38;;
33491;SDS011;20010;51.488;7.232;2022-11-23T01:13:47;4.85;;;4.43;;
33491;SDS011;20010;51.488;7.232;2022-11-23T01:16:18;9.85;;;5.00;;
33491;SDS011;20010;51.488;7.232;2022-11-23T01:18:53;7.90;;;4.70;;
33491;SDS011;20010;51.488;7.232;2022-11-23T01:21:20;4.65;;;4.38;;
33491;SDS011;20010;51.488;7.232;2022-11-23T01:23:47;4.97;;;4.72;;
33491;SDS011;20010;51.488;7.232;2022-11-23T01:26:14;5.68;;;5.18;;
33491;SDS011;20010;51.488;7.232;2022-11-23T01:28:41;5.32;;;4.85;;
33491;SDS011;20010;51.488;7.232;2022-11-23T01:31:09;5.57;;;5.07;;
33491;SDS011;20010;51.488;7.232;2022-11-23T01:33:40;5.13;;;4.63;;
33491;SDS011;20010;51.488;7.232;2022-11-23T01:36:14;4.82;;;4.40;;
33491;SDS011;20010;51.488;7.232;2022-11-23T01:38:43;5.13;;;4.68;;
33491;SDS011;20010;51.488;7.232;2022-11-23T01:41:12;4.80;;;4.45;;
33491;SDS011;20010;51.488;7.232;2022-11-23T01:43:40;6.53;;;4.68;;
33491;SDS011;20010;51.488;7.232;2022-11-23T01:46:07;4.70;;;4.40;;
33491;SDS011;20010;51.488;7.232;2022-11-23T01:48:45;6.97;;;4.97;;
33491;SDS011;20010;51.488;7.232;2022-11-23T01:51:19;6.93;;;4.82;;
33491;SDS011;20010;51.488;7.232;2022-11-23T01:53:50;9.18;;;5.22;;
33491;SDS011;20010;51.488;7.232;2022-11-23T01:56:21;9.50;;;6.07;;
33491;SDS011;20010;51.488;7.232;2022-11-23T01:58:53;5.38;;;4.45;;
33491;SDS011;20010;51.488;7.232;2022-11-23T02:01:24;4.90;;;4.60;;
33491;SDS011;20010;51.488;7.232;2022-11-23T02:03:50;5.78;;;4.60;;
33491;SDS011;20010;51.488;7.232;2022-11-23T02:06:20;5.35;;;4.88;;
33491;SDS011;20010;51.488;7.232;2022-11-23T02:08:48;7.82;;;5.10;;
33491;SDS011;20010;51.488;7.232;2022-11-23T02:11:16;7.80;;;5.15;;
33491;SDS011;20010;51.488;7.232;2022-11-23T02:13:43;6.80;;;4.65;;
33491;SDS011;20010;51.488;7.232;2022-11-23T02:16:12;5.05;;;4.75;;
33491;SDS011;20010;51.488;7.232;2022-11-23T02:18:40;7.40;;;4.75;;
33491;SDS011;20010;51.488;7.232;2022-11-23T02:21:09;6.00;;;5.47;;
33491;SDS011;20010;51.488;7.232;2022-11-23T02:23:41;5.28;;;4.68;;
33491;SDS011;20010;51.488;7.232;2022-11-23T02:26:25;5.72;;;4.75;;
33491;SDS011;20010;51.488;7.232;2022-11-23T02:31:30;6.15;;;5.28;;
33491;SDS011;20010;51.488;7.232;2022-11-23T02:33:57;5.00;;;4.57;;
33491;SDS011;20010;51.488;7.232;2022-11-23T02:39:14;5.45;;;5.10;;
33491;SDS011;20010;51.488;7.232;2022-11-23T02:41:45;5.40;;;4.90;;
33491;SDS011;20010;51.488;7.232;2022-11-23T02:44:17;5.68;;;4.85;;
33491;SDS011;20010;51.488;7.232;2022-11-23T02:46:57;7.95;;;5.00;;
33491;SDS011;20010;51.488;7.232;2022-11-23T02:49:24;5.60;;;5.20;;
33491;SDS011;20010;51.488;7.232;2022-11-23T02:51:51;5.97;;;5.30;;
33491;SDS011;20010;51.488;7.232;2022-11-23T02:54:18;11.00;;;5.00;;
33491;SDS011;20010;51.488;7.232;2022-11-23T02:56:45;5.43;;;5.00;;
33491;SDS011;20010;51.488;7.232;2022-11-23T02:59:11;5.35;;;4.90;;
33491;SDS011;20010;51.488;7.232;2022-11-23T03:01:38;5.50;;;4.90;;
33491;SDS011;20010;51.488;7.232;2022-11-23T03:04:05;6.28;;;5.07;;
33491;SDS011;20010;51.488;7.232;2022-11-23T03:06:32;5.00;;;4.60;;
33491;SDS011;20010;51.488;7.232;2022-11-23T03:08:59;4.80;;;4.50;;
33491;SDS011;20010;51.488;7.232;2022-11-23T03:11:26;5.45;;;4.80;;
33491;SDS011;20010;51.488;7.232;2022-11-23T03:13:53;5.60;;;5.10;;
33491;SDS011;20010;51.488;7.232;2022-11-23T03:16:19;6.88;;;4.97;;
33491;SDS011;20010;51.488;7.232;2022-11-23T03:18:46;5.20;;;4.68;;
33491;SDS011;20010;51.488;7.232;2022-11-23T03:21:13;7.93;;;5.00;;
33491;SDS011;20010;51.488;7.232;2022-11-23T03:23:40;4.90;;;4.60;;
33491;SDS011;20010;51.488;7.232;2022-11-23T03:26:06;5.10;;;4.60;;
33491;SDS011;20010;51.488;7.232;2022-11-23T03:28:38;8.10;;;4.70;;
33491;SDS011;20010;51.488;7.232;2022-11-23T03:31:05;6.60;;;5.10;;
33491;SDS011;20010;51.488;7.232;2022-11-23T03:33:32;5.68;;;5.10;;
33491;SDS011;20010;51.488;7.232;2022-11-23T03:35:59;5.72;;;4.70;;
33491;SDS011;20010;51.488;7.232;2022-11-23T03:38:26;5.72;;;5.10;;
33491;SDS011;20010;51.488;7.232;2022-11-23T03:40:53;5.50;;;4.82;;
33491;SDS011;20010;51.488;7.232;2022-11-23T03:43:20;5.40;;;4.90;;
33491;SDS011;20010;51.488;7.232;2022-11-23T03:45:47;6.47;;;5.32;;
33491;SDS011;20010;51.488;7.232;2022-11-23T03:48:14;6.10;;;5.32;;
33491;SDS011;20010;51.488;7.232;2022-11-23T03:50:41;5.00;;;4.55;;
33491;SDS011;20010;51.488;7.232;2022-11-23T03:53:09;7.72;;;5.18;;
33491;SDS011;20010;51.488;7.232;2022-11-23T03:55:36;5.63;;;5.13;;
33491;SDS011;20010;51.488;7.232;2022-11-23T03:58:03;8.63;;;5.15;;
33491;SDS011;20010;51.488;7.232;2022-11-23T04:00:30;6.55;;;4.72;;
33491;SDS011;20010;51.488;7.232;2022-11-23T04:02:57;5.78;;;5.28;;
33491;SDS011;20010;51.488;7.232;2022-11-23T04:05:24;6.65;;;5.22;;
33491;SDS011;20010;51.488;7.232;2022-11-23T04:07:52;6.65;;;4.72;;
33491;SDS011;20010;51.488;7.232;2022-11-23T04:10:19;5.22;;;4.50;;
33491;SDS011;20010;51.488;7.232;2022-11-23T04:12:49;5.20;;;4.80;;
33491;SDS011;20010;51.488;7.232;2022-11-23T04:15:17;5.85;;;5.28;;
33491;SDS011;20010;51.488;7.232;2022-11-23T04:17:44;7.47;;;5.00;;
33491;SDS011;20010;51.488;7.232;2022-11-23T04:20:11;7.65;;;4.80;;
33491;SDS011;20010;51.488;7.232;2022-11-23T04:22:39;7.32;;;5.25;;
33491;SDS011;20010;51.488;7.232;2022-11-23T04:25:06;6.10;;;5.00;;
33491;SDS011;20010;51.488;7.232;2022-11-23T04:27:33;5.40;;;5.00;;
33491;SDS011;20010;51.488;7.232;2022-11-23T04:29:59;5.18;;;4.65;;
33491;SDS011;20010;51.488;7.232;2022-11-23T04:32:26;5.78;;;4.53;;
33491;SDS011;20010;51.488;7.232;2022-11-23T04:34:53;5.53;;;4.97;;
33491;SDS011;20010;51.488;7.232;2022-11-23T04:37:20;7.28;;;4.70;;
33491;SDS011;20010;51.488;7.232;2022-11-23T04:39:46;6.93;;;4.80;;
33491;SDS011;20010;51.488;7.232;2022-11-23T04:42:13;4.85;;;4.28;;
33491;SDS011;20010;51.488;7.232;2022-11-23T04:44:40;5.28;;;4.43;;
33491;SDS011;20010;51.488;7.232;2022-11-23T04:47:08;5.43;;;4.90;;
33491;SDS011;20010;51.488;7.232;2022-11-23T04:49:35;4.60;;;4.20;;
33491;SDS011;20010;51.488;7.232;2022-11-23T04:52:02;5.05;;;4.68;;
33491;SDS011;20010;51.488;7.232;2022-11-23T04:54:31;6.15;;;5.35;;
33491;SDS011;20010;51.488;7.232;2022-11-23T04:56:57;5.07;;;4.68;;
33491;SDS011;20010;51.488;7.232;2022-11-23T04:59:24;5.53;;;4.70;;
33491;SDS011;20010;51.488;7.232;2022-11-23T05:01:51;4.88;;;4.47;;
33491;SDS011;20010;51.488;7.232;2022-11-23T05:04:18;6.15;;;4.70;;
33491;SDS011;20010;51.488;7.232;2022-11-23T05:06:45;6.35;;;4.47;;
33491;SDS011;20010;51.488;7.232;2022-11-23T05:09:12;5.47;;;4.30;;
33491;SDS011;20010;51.488;7.232;2022-11-23T05:11:39;4.63;;;4.32;;
33491;SDS011;20010;51.488;7.232;2022-11-23T05:14:06;5.05;;;4.75;;
33491;SDS011;20010;51.488;7.232;2022-11-23T05:16:32;6.57;;;5.38;;
33491;SDS011;20010;51.488;7.232;2022-11-23T05:18:59;5.45;;;4.40;;
33491;SDS011;20010;51.488;7.232;2022-11-23T05:21:26;5.00;;;4.47;;
33491;SDS011;20010;51.488;7.232;2022-11-23T05:23:53;6.00;;;4.50;;
33491;SDS011;20010;51.488;7.232;2022-11-23T05:26:20;6.32;;;4.93;;
33491;SDS011;20010;51.488;7.232;2022-11-23T05:28:47;6.47;;;5.88;;
33491;SDS011;20010;51.488;7.232;2022-11-23T05:31:13;7.45;;;4.82;;
33491;SDS011;20010;51.488;7.232;2022-11-23T05:33:40;6.18;;;4.57;;
33491;SDS011;20010;51.488;7.232;2022-11-23T05:36:07;6.63;;;4.93;;
33491;SDS011;20010;51.488;7.232;2022-11-23T05:38:34;7.32;;;4.93;;
33491;SDS011;20010;51.488;7.232;2022-11-23T05:41:01;7.53;;;5.15;;
33491;SDS011;20010;51.488;7.232;2022-11-23T05:43:28;7.68;;;4.75;;
33491;SDS011;20010;51.488;7.232;2022-11-23T05:45:57;7.72;;;5.40;;
33491;SDS011;20010;51.488;7.232;2022-11-23T05:48:25;5.72;;;4.55;;
33491;SDS011;20010;51.488;7.232;2022-11-23T05:50:52;5.80;;;4.72;;
33491;SDS011;20010;51.488;7.232;2022-11-23T05:53:19;5.63;;;4.97;;
33491;SDS011;20010;51.488;7.232;2022-11-23T05:55:45;5.88;;;4.20;;
33491;SDS011;20010;51.488;7.232;2022-11-23T05:58:12;5.60;;;4.97;;
33491;SDS011;20010;51.488;7.232;2022-11-23T06:00:39;6.65;;;4.28;;
33491;SDS011;20010;51.488;7.232;2022-11-23T06:03:06;7.57;;;5.68;;
33491;SDS011;20010;51.488;7.232;2022-11-23T06:05:33;11.52;;;6.32;;
33491;SDS011;20010;51.488;7.232;2022-11-23T06:08:00;5.90;;;4.80;;
33491;SDS011;20010;51.488;7.232;2022-11-23T06:10:26;5.97;;;4.40;;
33491;SDS011;20010;51.488;7.232;2022-11-23T06:12:53;8.88;;;4.72;;
33491;SDS011;20010;51.488;7.232;2022-11-23T06:15:20;6.70;;;4.35;;
33491;SDS011;20010;51.488;7.232;2022-11-23T06:17:47;9.43;;;5.90;;
33491;SDS011;20010;51.488;7.232;2022-11-23T06:20:13;9.95;;;5.47;;
33491;SDS011;20010;51.488;7.232;2022-11-23T06:22:40;5.53;;;4.40;;
33491;SDS011;20010;51.488;7.232;2022-11-23T06:25:07;7.57;;;4.65;;
33491;SDS011;20010;51.488;7.232;2022-11-23T06:27:34;6.97;;;4.60;;
33491;SDS011;20010;51.488;7.232;2022-11-23T06:30:01;5.43;;;4.88;;
33491;SDS011;20010;51.488;7.232;2022-11-23T06:32:29;5.22;;;4.55;;
33491;SDS011;20010;51.488;7.232;2022-11-23T06:34:55;7.55;;;5.35;;
33491;SDS011;20010;51.488;7.232;2022-11-23T06:37:26;9.43;;;4.50;;
33491;SDS011;20010;51.488;7.232;2022-11-23T06:39:53;6.45;;;4.75;;
33491;SDS011;20010;51.488;7.232;2022-11-23T06:42:19;6.80;;;5.22;;
33491;SDS011;20010;51.488;7.232;2022-11-23T06:45:04;5.18;;;4.57;;
33491;SDS011;20010;51.488;7.232;2022-11-23T06:47:32;8.00;;;4.55;;
33491;SDS011;20010;51.488;7.232;2022-11-23T06:49:58;8.77;;;5.50;;
33491;SDS011;20010;51.488;7.232;2022-11-23T06:52:25;7.72;;;4.88;;
33491;SDS011;20010;51.488;7.232;2022-11-23T06:54:52;8.82;;;5.13;;
33491;SDS011;20010;51.488;7.232;2022-11-23T06:57:19;6.03;;;4.60;;
33491;SDS011;20010;51.488;7.232;2022-11-23T06:59:45;6.65;;;4.40;;
33491;SDS011;20010;51.488;7.232;2022-11-23T07:02:13;9.55;;;4.63;;
33491;SDS011;20010;51.488;7.232;2022-11-23T07:04:41;5.57;;;4.75;;
33491;SDS011;20010;51.488;7.232;2022-11-23T07:07:12;6.07;;;5.03;;
33491;SDS011;20010;51.488;7.232;2022-11-23T07:09:38;6.63;;;4.25;;
33491;SDS011;20010;51.488;7.232;2022-11-23T07:12:05;10.77;;;5.22;;
33491;SDS011;20010;51.488;7.232;2022-11-23T07:14:32;10.23;;;5.32;;
33491;SDS011;20010;51.488;7.232;2022-11-23T07:16:59;7.70;;;4.80;;
33491;SDS011;20010;51.488;7.232;2022-11-23T07:19:26;9.15;;;5.20;;
33491;SDS011;20010;51.488;7.232;2022-11-23T07:21:53;8.63;;;4.80;;
33491;SDS011;20010;51.488;7.232;2022-11-23T07:24:19;12.23;;;5.65;;
33491;SDS011;20010;51.488;7.232;2022-11-23T07:26:46;9.00;;;5.00;;
33491;SDS011;20010;51.488;7.232;2022-11-23T07:29:13;10.43;;;4.95;;
33491;SDS011;20010;51.488;7.232;2022-11-23T07:31:40;12.55;;;5.32;;
33491;SDS011;20010;51.488;7.232;2022-11-23T07:34:06;6.95;;;4.65;;
33491;SDS011;20010;51.488;7.232;2022-11-23T07:36:34;7.38;;;4.65;;
33491;SDS011;20010;51.488;7.232;2022-11-23T07:39:02;6.18;;;4.63;;
33491;SDS011;20010;51.488;7.232;2022-11-23T07:41:29;5.82;;;4.78;;
33491;SDS011;20010;51.488;7.232;2022-11-23T07:43:56;8.18;;;5.05;;
33491;SDS011;20010;51.488;7.232;2022-11-23T07:46:23;6.78;;;4.90;;
33491;SDS011;20010;51.488;7.232;2022-11-23T07:48:49;4.97;;;4.47;;
33491;SDS011;20010;51.488;7.232;2022-11-23T07:51:16;5.93;;;4.55;;
33491;SDS011;20010;51.488;7.232;2022-11-23T07:53:45;5.78;;;4.22;;
33491;SDS011;20010;51.488;7.232;2022-11-23T07:56:12;6.40;;;4.18;;
33491;SDS011;20010;51.488;7.232;2022-11-23T07:58:39;4.60;;;4.20;;
33491;SDS011;20010;51.488;7.232;2022-11-23T08:01:05;6.22;;;4.25;;
33491;SDS011;20010;51.488;7.232;2022-11-23T08:03:32;5.88;;;4.50;;
33491;SDS011;20010;51.488;7.232;2022-11-23T08:05:59;5.68;;;4.20;;
33491;SDS011;20010;51.488;7.232;2022-11-23T08:08:26;6.38;;;4.50;;
33491;SDS011;20010;51.488;7.232;2022-11-23T08:10:53;6.32;;;4.45;;
33491;SDS011;20010;51.488;7.232;2022-11-23T08:13:20;7.88;;;4.70;;
33491;SDS011;20010;51.488;7.232;2022-11-23T08:15:47;5.35;;;4.63;;
33491;SDS011;20010;51.488;7.232;2022-11-23T08:18:20;5.85;;;4.45;;
33491;SDS011;20010;51.488;7.232;2022-11-23T08:20:48;6.88;;;4.50;;
33491;SDS011;20010;51.488;7.232;2022-11-23T08:23:15;7.10;;;4.72;;
33491;SDS011;20010;51.488;7.232;2022-11-23T08:25:42;5.22;;;4.82;;
33491;SDS011;20010;51.488;7.232;2022-11-23T08:28:09;12.15;;;5.05;;
33491;SDS011;20010;51.488;7.232;2022-11-23T08:30:36;5.75;;;4.75;;
33491;SDS011;20010;51.488;7.232;2022-11-23T08:33:06;6.55;;;4.90;;
33491;SDS011;20010;51.488;7.232;2022-11-23T08:35:34;4.85;;;4.38;;
33491;SDS011;20010;51.488;7.232;2022-11-23T08:38:03;5.72;;;4.40;;
33491;SDS011;20010;51.488;7.232;2022-11-23T08:40:31;5.05;;;4.50;;
33491;SDS011;20010;51.488;7.232;2022-11-23T08:42:59;5.60;;;4.75;;
33491;SDS011;20010;51.488;7.232;2022-11-23T08:45:25;6.32;;;4.57;;
33491;SDS011;20010;51.488;7.232;2022-11-23T08:47:53;8.02;;;5.55;;
33491;SDS011;20010;51.488;7.232;2022-11-23T08:50:20;8.95;;;5.95;;
33491;SDS011;20010;51.488;7.232;2022-11-23T08:52:52;6.00;;;5.47;;
33491;SDS011;20010;51.488;7.232;2022-11-23T08:55:27;6.43;;;4.75;;
33491;SDS011;20010;51.488;7.232;2022-11-23T08:57:55;6.68;;;4.78;;
33491;SDS011;20010;51.488;7.232;2022-11-23T09:00:23;10.90;;;6.38;;
33491;SDS011;20010;51.488;7.232;2022-11-23T09:02:50;8.48;;;5.32;;
33491;SDS011;20010;51.488;7.232;2022-11-23T09:05:17;5.97;;;4.82;;
33491;SDS011;20010;51.488;7.232;2022-11-23T09:07:44;11.55;;;5.80;;
33491;SDS011;20010;51.488;7.232;2022-11-23T09:10:11;6.32;;;5.20;;
33491;SDS011;20010;51.488;7.232;2022-11-23T09:12:44;8.02;;;5.35;;
33491;SDS011;20010;51.488;7.232;2022-11-23T09:15:12;10.45;;;6.07;;
33491;SDS011;20010;51.488;7.232;2022-11-23T09:17:38;7.13;;;5.60;;
33491;SDS011;20010;51.488;7.232;2022-11-23T09:20:06;7.20;;;5.30;;
33491;SDS011;20010;51.488;7.232;2022-11-23T09:22:33;5.32;;;4.93;;
33491;SDS011;20010;51.488;7.232;2022-11-23T09:25:00;7.70;;;5.72;;
33491;SDS011;20010;51.488;7.232;2022-11-23T09:27:27;9.30;;;5.68;;
33491;SDS011;20010;51.488;7.232;2022-11-23T09:29:53;6.43;;;5.13;;
33491;SDS011;20010;51.488;7.232;2022-11-23T09:32:20;6.90;;;5.28;;
33491;SDS011;20010;51.488;7.232;2022-11-23T09:34:47;8.60;;;5.40;;
33491;SDS011;20010;51.488;7.232;2022-11-23T09:37:13;7.57;;;5.13;;
33491;SDS011;20010;51.488;7.232;2022-11-23T09:39:40;14.45;;;7.18;;
33491;SDS011;20010;51.488;7.232;2022-11-23T09:47:39;8.18;;;5.65;;
33491;SDS011;20010;51.488;7.232;2022-11-23T09:50:17;10.48;;;5.90;;
33491;SDS011;20010;51.488;7.232;2022-11-23T09:52:56;8.77;;;7.25;;
33491;SDS011;20010;51.488;7.232;2022-11-23T09:58:10;8.60;;;5.70;;
33491;SDS011;20010;51.488;7.232;2022-11-23T10:00:42;12.20;;;6.57;;
33491;SDS011;20010;51.488;7.232;2022-11-23T10:03:16;8.13;;;6.00;;
33491;SDS011;20010;51.488;7.232;2022-11-23T10:05:46;9.25;;;6.38;;
33491;SDS011;20010;51.488;7.232;2022-11-23T10:11:23;10.75;;;6.63;;
33491;SDS011;20010;51.488;7.232;2022-11-23T10:13:59;8.98;;;6.55;;
33491;SDS011;20010;51.488;7.232;2022-11-23T10:22:15;9.35;;;6.95;;
33491;SDS011;20010;51.488;7.232;2022-11-23T10:24:48;11.63;;;6.63;;
33491;SDS011;20010;51.488;7.232;2022-11-23T10:27:19;10.05;;;6.53;;
33491;SDS011;20010;51.488;7.232;2022-11-23T10:29:47;7.40;;;6.22;;
33491;SDS011;20010;51.488;7.232;2022-11-23T10:37:37;7.45;;;5.82;;
33491;SDS011;20010;51.488;7.232;2022-11-23T10:40:26;8.40;;;6.97;;
33491;SDS011;20010;51.488;7.232;2022-11-23T10:42:57;10.68;;;7.72;;
33491;SDS011;20010;51.488;7.232;2022-11-23T10:45:29;10.25;;;6.63;;
33491;SDS011;20010;51.488;7.232;2022-11-23T10:47:57;8.48;;;6.40;;
33491;SDS011;20010;51.488;7.232;2022-11-23T10:50:32;14.68;;;7.28;;
33491;SDS011;20010;51.488;7.232;2022-11-23T10:53:21;8.60;;;6.47;;
33491;SDS011;20010;51.488;7.232;2022-11-23T10:55:52;9.90;;;7.38;;
33491;SDS011;20010;51.488;7.232;2022-11-23T10:59:03;12.32;;;6.53;;
33491;SDS011;20010;51.488;7.232;2022-11-23T11:01:13;8.20;;;6.75;;
33491;SDS011;20010;51.488;7.232;2022-11-23T11:03:41;8.82;;;6.80;;
33491;SDS011;20010;51.488;7.232;2022-11-23T11:06:08;7.88;;;6.45;;
33491;SDS011;20010;51.488;7.232;2022-11-23T11:08:55;9.20;;;6.85;;
33491;SDS011;20010;51.488;7.232;2022-11-23T11:11:33;9.32;;;6.75;;
33491;SDS011;20010;51.488;7.232;2022-11-23T11:14:13;8.98;;;8.05;;
33491;SDS011;20010;51.488;7.232;2022-11-23T11:21:57;7.57;;;6.72;;
33491;SDS011;20010;51.488;7.232;2022-11-23T11:24:36;7.70;;;6.95;;
33491;SDS011;20010;51.488;7.232;2022-11-23T11:27:05;10.10;;;7.35;;
33491;SDS011;20010;51.488;7.232;2022-11-23T11:32:10;8.93;;;7.53;;
33491;SDS011;20010;51.488;7.232;2022-11-23T11:37:35;8.25;;;7.45;;
33491;SDS011;20010;51.488;7.232;2022-11-23T11:40:06;11.38;;;7.90;;
33491;SDS011;20010;51.488;7.232;2022-11-23T11:45:38;8.05;;;7.30;;
33491;SDS011;20010;51.488;7.232;2022-11-23T11:48:31;9.02;;;7.97;;
33491;SDS011;20010;51.488;7.232;2022-11-23T11:51:19;8.50;;;7.57;;
33491;SDS011;20010;51.488;7.232;2022-11-23T11:53:56;10.43;;;7.35;;
33491;SDS011;20010;51.488;7.232;2022-11-23T11:56:44;12.57;;;7.97;;
33491;SDS011;20010;51.488;7.232;2022-11-23T12:04:58;8.85;;;7.80;;
33491;SDS011;20010;51.488;7.232;2022-11-23T12:10:45;8.95;;;8.15;;
33491;SDS011;20010;51.488;7.232;2022-11-23T12:13:34;8.40;;;7.70;;
33491;SDS011;20010;51.488;7.232;2022-11-23T12:24:55;8.80;;;7.88;;
33491;SDS011;20010;51.488;7.232;2022-11-23T12:26:56;10.88;;;8.77;;
33491;SDS011;20010;51.488;7.232;2022-11-23T12:52:05;8.23;;;7.30;;
33491;SDS011;20010;51.488;7.232;2022-11-23T12:55:01;9.48;;;6.85;;
33491;SDS011;20010;51.488;7.232;2022-11-23T12:57:58;8.20;;;7.53;;
33491;SDS011;20010;51.488;7.232;2022-11-23T13:00:38;10.98;;;9.27;;
33491;SDS011;20010;51.488;7.232;2022-11-23T13:06:03;9.75;;;8.18;;
33491;SDS011;20010;51.488;7.232;2022-11-23T13:14:23;8.48;;;7.97;;
33491;SDS011;20010;51.488;7.232;2022-11-23T13:22:30;9.40;;;8.70;;
33491;SDS011;20010;51.488;7.232;2022-11-23T13:27:53;8.88;;;8.05;;
33491;SDS011;20010;51.488;7.232;2022-11-23T13:35:46;11.20;;;9.13;;
33491;SDS011;20010;51.488;7.232;2022-11-23T13:38:21;9.93;;;9.13;;
33491;SDS011;20010;51.488;7.232;2022-11-23T13:40:50;9.60;;;8.60;;
33491;SDS011;20010;51.488;7.232;2022-11-23T13:43:28;9.65;;;8.23;;
33491;SDS011;20010;51.488;7.232;2022-11-23T13:46:08;8.98;;;8.25;;
33491;SDS011;20010;51.488;7.232;2022-11-23T13:48:50;8.93;;;8.43;;
33491;SDS011;20010;51.488;7.232;2022-11-23T13:51:30;8.60;;;8.00;;
33491;SDS011;20010;51.488;7.232;2022-11-23T13:54:03;8.52;;;7.82;;
33491;SDS011;20010;51.488;7.232;2022-11-23T13:56:41;8.07;;;7.57;;
33491;SDS011;20010;51.488;7.232;2022-11-23T14:04:24;8.25;;;7.55;;
33491;SDS011;20010;51.488;7.232;2022-11-23T14:14:59;8.98;;;8.10;;
33491;SDS011;20010;51.488;7.232;2022-11-23T14:17:43;8.52;;;8.02;;
33491;SDS011;20010;51.488;7.232;2022-11-23T14:20:23;8.98;;;8.30;;
33491;SDS011;20010;51.488;7.232;2022-11-23T14:29:13;8.32;;;7.72;;
33491;SDS011;20010;51.488;7.232;2022-11-23T14:32:15;10.13;;;9.00;;
33491;SDS011;20010;51.488;7.232;2022-11-23T14:43:32;9.43;;;7.82;;
33491;SDS011;20010;51.488;7.232;2022-11-23T14:46:02;9.95;;;8.95;;
33491;SDS011;20010;51.488;7.232;2022-11-23T14:48:33;9.10;;;8.35;;
33491;SDS011;20010;51.488;7.232;2022-11-23T14:53:30;8.95;;;8.18;;
33491;SDS011;20010;51.488;7.232;2022-11-23T14:56:00;8.20;;;7.38;;
33491;SDS011;20010;51.488;7.232;2022-11-23T14:58:28;8.73;;;7.93;;
33491;SDS011;20010;51.488;7.232;2022-11-23T15:00:58;10.17;;;8.40;;
33491;SDS011;20010;51.488;7.232;2022-11-23T15:03:27;8.55;;;8.05;;
33491;SDS011;20010;51.488;7.232;2022-11-23T15:06:15;9.23;;;8.38;;
33491;SDS011;20010;51.488;7.232;2022-11-23T15:08:48;8.40;;;7.60;;
33491;SDS011;20010;51.488;7.232;2022-11-23T15:11:30;9.55;;;8.30;;
33491;SDS011;20010;51.488;7.232;2022-11-23T15:14:00;8.18;;;7.50;;
33491;SDS011;20010;51.488;7.232;2022-11-23T15:16:27;8.77;;;8.13;;
33491;SDS011;20010;51.488;7.232;2022-11-23T15:18:55;8.80;;;8.00;;
33491;SDS011;20010;51.488;7.232;2022-11-23T15:21:23;8.10;;;7.50;;
33491;SDS011;20010;51.488;7.232;2022-11-23T15:23:54;8.43;;;7.18;;
33491;SDS011;20010;51.488;7.232;2022-11-23T15:26:23;8.52;;;7.88;;
33491;SDS011;20010;51.488;7.232;2022-11-23T15:31:59;9.77;;;8.93;;
33491;SDS011;20010;51.488;7.232;2022-11-23T15:34:47;9.13;;;7.88;;
33491;SDS011;20010;51.488;7.232;2022-11-23T15:37:15;8.18;;;7.55;;
33491;SDS011;20010;51.488;7.232;2022-11-23T15:39:43;8.63;;;7.80;;
33491;SDS011;20010;51.488;7.232;2022-11-23T15:42:16;7.65;;;7.00;;
33491;SDS011;20010;51.488;7.232;2022-11-23T15:44:45;7.88;;;7.18;;
33491;SDS011;20010;51.488;7.232;2022-11-23T15:47:20;7.60;;;6.90;;
33491;SDS011;20010;51.488;7.232;2022-11-23T15:49:53;8.15;;;7.40;;
33491;SDS011;20010;51.488;7.232;2022-11-23T15:52:29;9.50;;;7.53;;
33491;SDS011;20010;51.488;7.232;2022-11-23T15:55:01;8.23;;;7.32;;
33491;SDS011;20010;51.488;7.232;2022-11-23T15:57:35;7.53;;;6.93;;
33491;SDS011;20010;51.488;7.232;2022-11-23T16:00:04;8.25;;;7.65;;
33491;SDS011;20010;51.488;7.232;2022-11-23T16:02:32;8.00;;;7.40;;
33491;SDS011;20010;51.488;7.232;2022-11-23T16:07:30;7.15;;;6.45;;
33491;SDS011;20010;51.488;7.232;2022-11-23T16:10:12;7.93;;;6.85;;
33491;SDS011;20010;51.488;7.232;2022-11-23T16:12:47;8.90;;;6.93;;
33491;SDS011;20010;51.488;7.232;2022-11-23T16:15:37;7.80;;;7.20;;
33491;SDS011;20010;51.488;7.232;2022-11-23T16:20:55;7.53;;;6.90;;
33491;SDS011;20010;51.488;7.232;2022-11-23T16:23:49;8.52;;;6.63;;
33491;SDS011;20010;51.488;7.232;2022-11-23T16:26:29;8.02;;;7.28;;
33491;SDS011;20010;51.488;7.232;2022-11-23T16:28:58;7.38;;;6.47;;
33491;SDS011;20010;51.488;7.232;2022-11-23T16:34:09;8.40;;;7.60;;
33491;SDS011;20010;51.488;7.232;2022-11-23T16:36:41;7.63;;;7.03;;
33491;SDS011;20010;51.488;7.232;2022-11-23T16:39:07;11.38;;;7.07;;
33491;SDS011;20010;51.488;7.232;2022-11-23T16:41:34;7.82;;;7.10;;
33491;SDS011;20010;51.488;7.232;2022-11-23T16:44:01;9.25;;;6.93;;
33491;SDS011;20010;51.488;7.232;2022-11-23T16:46:30;7.85;;;6.97;;
33491;SDS011;20010;51.488;7.232;2022-11-23T16:48:57;7.03;;;6.53;;
33491;SDS011;20010;51.488;7.232;2022-11-23T16:51:25;8.05;;;6.72;;
33491;SDS011;20010;51.488;7.232;2022-11-23T16:53:53;6.72;;;6.32;;
33491;SDS011;20010;51.488;7.232;2022-11-23T16:56:41;7.40;;;6.75;;
33491;SDS011;20010;51.488;7.232;2022-11-23T16:59:12;7.70;;;7.03;;
33491;SDS011;20010;51.488;7.232;2022-11-23T17:01:41;8.13;;;6.10;;
33491;SDS011;20010;51.488;7.232;2022-11-23T17:04:12;7.13;;;6.50;;
33491;SDS011;20010;51.488;7.232;2022-11-23T17:06:43;7.82;;;6.18;;
33491;SDS011;20010;51.488;7.232;2022-11-23T17:09:10;6.47;;;5.97;;
33491;SDS011;20010;51.488;7.232;2022-11-23T17:11:39;6.70;;;6.00;;
33491;SDS011;20010;51.488;7.232;2022-11-23T17:14:12;9.57;;;6.25;;
33491;SDS011;20010;51.488;7.232;2022-11-23T17:16:44;6.65;;;5.95;;
33491;SDS011;20010;51.488;7.232;2022-11-23T17:19:15;7.47;;;6.78;;
33491;SDS011;20010;51.488;7.232;2022-11-23T17:21:43;6.97;;;6.43;;
33491;SDS011;20010;51.488;7.232;2022-11-23T17:24:10;7.38;;;6.55;;
33491;SDS011;20010;51.488;7.232;2022-11-23T17:26:39;6.65;;;6.05;;
33491;SDS011;20010;51.488;7.232;2022-11-23T17:29:11;6.65;;;5.90;;
33491;SDS011;20010;51.488;7.232;2022-11-23T17:31:39;6.45;;;5.85;;